Hartsfield Jackson Atlanta International Airport

KATL · Georgia, United States

METAR history KATL · Hartsfield Jackson Atlanta International Airport

Below you see METARs of the last few days. Select a year to browse through older METARs, from the year 2007 onwards.

February 4, 2023

Time Code Weather Temp. Visibility Ceiling Wind METAR/SPECI
10:52
V
5 °C 10 mi - 110° 110° 10 kt METAR KATL 041552Z 11010KT 10SM FEW250 05/M08 A3056 RMK AO2 SLP357 T00501083 $
09:52
V
3 °C 10 mi - 110° 110° 9 kt METAR KATL 041452Z 11009KT 10SM FEW250 03/M08 A3056 RMK AO2 SLP356 T00331083 52017 $
08:52
V
2 °C 10 mi - 100° 100° 9 kt METAR KATL 041352Z 10009KT 10SM FEW250 02/M07 A3054 RMK AO2 SLP349 T00171072 $
07:52
V
1 °C 10 mi - 070° 070° 9 kt METAR KATL 041252Z 07009KT 10SM FEW200 01/M08 A3052 RMK AO2 SLP345 T00061078 $
06:52
V
0 °C 10 mi - 060° 060° 6 kt METAR KATL 041152Z 06006KT 10SM CLR 00/M08 A3051 RMK AO2 SLP339 T00001078 10011 21011 51017 $
05:52
V
-1 °C 10 mi - 020° 020° 6 kt METAR KATL 041052Z 02006KT 10SM CLR M01/M08 A3050 RMK AO2 SLP335 T10061083 $
04:52
V
-1 °C 10 mi - 340° 340° 5 kt METAR KATL 040952Z 34005KT 10SM CLR M01/M08 A3049 RMK AO2 SLP331 T10111083 $
03:52
V
-1 °C 10 mi - 350° 350° 4 kt METAR KATL 040852Z 35004KT 10SM CLR M01/M08 A3045 RMK AO2 SLP319 T10061083 51009
02:52
V
0 °C 10 mi - 330° 330° 5 kt METAR KATL 040752Z 33005KT 10SM CLR 00/M08 A3045 RMK AO2 SLP316 T00001083
01:52
V
1 °C 10 mi - 340° 340° 7 kt METAR KATL 040652Z 34007KT 10SM CLR 01/M09 A3044 RMK AO2 SLP314 T00061089
00:52
V
1 °C 10 mi - 330° 330° 7 kt METAR KATL 040552Z 33007KT 10SM CLR 01/M09 A3043 RMK AO2 SLP310 T00111089 10056 20011 51006

February 3, 2023

Time Code Weather Temp. Visibility Ceiling Wind METAR/SPECI
23:52
V
2 °C 10 mi - 340° 340° 8 kt METAR KATL 040452Z 34008KT 10SM CLR 02/M09 A3042 RMK AO2 SLP309 T00171094 400940017
22:52
V
3 °C 10 mi - 330° 330° 10 kt METAR KATL 040352Z 33010KT 10SM CLR 03/M09 A3042 RMK AO2 SLP306 T00281094
21:52
V
3 °C 10 mi - 340° 340° 11 kt METAR KATL 040252Z 34011KT 10SM CLR 03/M11 A3041 RMK AO2 SLP304 T00331106 51015
20:52
V
4 °C 10 mi - 330° 330° 14 - 25 kt METAR KATL 040152Z 33014G25KT 10SM CLR 04/M09 A3039 RMK AO2 SLP300 T00441094
19:52
V
5 °C 10 mi - 330° 330° 13 - 25 kt METAR KATL 040052Z 33013G25KT 10SM CLR 05/M08 A3038 RMK AO2 SLP294 T00501083
18:52
V
6 °C 10 mi - 330° 330° 10 kt METAR KATL 032352Z 33010KT 10SM CLR 06/M08 A3036 RMK AO2 SLP288 T00561083 10094 20056 52025
17:52
V
7 °C 10 mi - 340° 340° 17 kt METAR KATL 032252Z 34017KT 10SM CLR 07/M09 A3034 RMK AO2 PK WND 33026/2153 SLP280 T00721094
16:52
V
8 °C 10 mi - 330° 330° 15 - 24 kt METAR KATL 032152Z 33015G24KT 10SM CLR 08/M09 A3031 RMK AO2 PK WND 33028/2056 SLP269 T00831094
15:52
V
9 °C 10 mi - 320° 320° 18 - 27 kt METAR KATL 032052Z 32018G27KT 10SM CLR 09/M08 A3029 RMK AO2 PK WND 33027/2048 SLP261 T00891083 53003
14:52
V
9 °C 10 mi - 320° 320° 18 - 26 kt METAR KATL 031952Z 32018G26KT 10SM CLR 09/M08 A3027 RMK AO2 PK WND 34028/1905 SLP255 T00891083
13:52
V
9 °C 10 mi - 330° 330° 19 - 25 kt METAR KATL 031852Z 33019G25KT 10SM CLR 09/M06 A3028 RMK AO2 PK WND 33028/1835 SLP256 T00891061
12:52
V
8 °C 10 mi - 350° 350° 16 - 29 kt METAR KATL 031752Z 35016G29KT 10SM CLR 08/M06 A3028 RMK AO2 PK WND 30029/1743 SLP257 T00831061 10083 20028 50008
11:52
V
8 °C 10 mi - 330° 330° 13 - 25 kt METAR KATL 031652Z 33013G25KT 10SM CLR 08/M06 A3029 RMK AO2 SLP261 T00781056
10:52
V
7 °C 10 mi - 320° 320° 14 - 24 kt METAR KATL 031552Z 32014G24KT 10SM FEW190 07/M03 A3029 RMK AO2 PK WND 33027/1537 SLP260 T00721033 $
09:52
V
6 °C 10 mi - 330° 330° 11 kt METAR KATL 031452Z 33011KT 10SM FEW190 06/M02 A3026 RMK AO2 SLP250 T00561022 51033 $
08:52
V
3 °C 10 mi - 320° 320° 13 kt METAR KATL 031352Z 32013KT 10SM FEW160 SCT190 03/M03 A3023 RMK AO2 SLP241 T00281033 $
07:52
V
4 °C 10 mi 16,000 ft 320° 320° 16 - 22 kt METAR KATL 031252Z 32016G22KT 10SM FEW110 BKN160 BKN180 04/M02 A3021 RMK AO2 SLP234 T00391017 $
06:52
V
4 °C 10 mi 16,000 ft 320° 320° 11 kt METAR KATL 031152Z 32011KT 10SM FEW075 SCT110 BKN160 04/M01 A3016 RMK AO2 SLP217 60006 70081 T00441011 10078 20044 53015 $
05:52
V
5 °C 10 mi 10,000 ft 330° 330° 11 kt METAR KATL 031052Z 33011KT 10SM FEW075 OVC100 05/01 A3012 RMK AO2 SLP205 T00500006 $
04:52
V
6 °C 10 mi 5,500 ft 320° 320° 11 kt METAR KATL 030952Z 32011KT 10SM BKN055 OVC075 06/03 A3013 RMK AO2 RAE41 SLP206 P0000 T00560028 $
03:52
V
6 °C 10 mi 8,500 ft 320° 320° 10 kt METAR KATL 030852Z 32010KT 10SM -RA SCT048 OVC085 06/04 A3011 RMK AO2 RAB0758E19B52 SLP201 P0000 60006 T00610039 58001 $
02:52
V
7 °C 10 mi 7,000 ft 320° 320° 12 kt METAR KATL 030752Z 32012KT 10SM FEW007 SCT055 OVC070 07/04 A3011 RMK AO2 RAE35 SLP200 P0002 T00720044 $
01:52
V
8 °C 5 mi 6,000 ft 320° 320° 7 kt METAR KATL 030652Z 32007KT 5SM RA BR SCT007 SCT012 OVC060 08/06 A3012 RMK AO2 SLP201 SCT012 V BKN P0004 T00780061 $
00:52
V
8 °C 8 mi 5,500 ft 330° 330° 8 kt METAR KATL 030552Z 33008KT 8SM -RA SCT008 BKN055 OVC090 08/06 A3012 RMK AO2 RAB0459 SLP201 SCT008 V BKN P0000 60045 T00780061 10089 20078 58002 $

February 2, 2023

Time Code Weather Temp. Visibility Ceiling Wind METAR/SPECI
23:52
V
8 °C 8 mi 5,000 ft 320° 320° 8 kt METAR KATL 030452Z 32008KT 8SM SCT006 BKN050 OVC090 08/06 A3012 RMK AO2 RAE0354B40E50 SLP203 P0000 T00780061 401060078 $
22:52
V
8 °C 8 mi 5,000 ft 310° 310° 7 kt METAR KATL 030352Z 31007KT 8SM -RA FEW005 BKN050 OVC090 08/07 A3014 RMK AO2 SLP209 P0004 T00830067 $
22:29
V
8 °C 6 mi 5,500 ft 310° 310° 7 kt METAR KATL 030329Z 31007KT 6SM -RA BR FEW005 BKN055 OVC090 08/07 A3015 RMK AO2 P0003 T00830072 $
21:52
I
8 °C 1½ mi 6,500 ft 330° 330° 7 kt METAR KATL 030252Z 33007KT 1 1/2SM RA BR FEW005 BKN065 OVC090 08/07 A3012 RMK AO2 SFC VIS 5 SLP203 P0020 60041 T00830072 50008 $
20:52
I
8 °C 1½ mi 4,500 ft 320° 320° 8 kt METAR KATL 030152Z 32008KT 1 1/2SM RA BR SCT005 BKN045 OVC080 08/07 A3013 RMK AO2 SFC VIS 3 SLP205 SCT005 V BKN P0013 T00830072 $
19:52
I
9 °C 1½ mi 4,000 ft 330° 330° 6 kt METAR KATL 030052Z 33006KT 1 1/2SM RA BR SCT005 BKN040 OVC080 09/08 A3010 RMK AO2 SFC VIS 4 SLP196 SCT005 V BKN P0008 T00890078 $
19:22
I
9 °C 1½ mi 500 ft 340° 340° 6 kt METAR KATL 030022Z 34006KT 1 1/2SM RA BR BKN005 BKN040 OVC100 09/08 A3010 RMK AO2 SFC VIS 5 P0002 T00890078 $
18:52
I
9 °C 1½ mi 4,000 ft 350° 350° 6 kt METAR KATL 022352Z 35006KT 1 1/2SM -RA BR SCT005 BKN040 OVC100 09/08 A3010 RMK AO2 SFC VIS 6 SLP195 SCT005 V BKN P0009 60028 T00890078 10106 20089 58001 $
17:52
I
9 °C 1½ mi 7,000 ft 340° 340° 7 - 18 kt METAR KATL 022252Z 34007G18KT 1 1/2SM RA BR SCT005 OVC070 09/08 A3011 RMK AO2 SFC VIS 5 PRESRR SLP200 SCT005 V BKN P0005 T00940083 $
16:52
I
9 °C 1½ mi 2,400 ft 330° 330° 4 kt METAR KATL 022152Z 33004KT 1 1/2SM -RA BR SCT005 BKN024 OVC065 09/08 A3011 RMK AO2 SFC VIS 3 SLP200 P0010 T00940083 $
16:34
I
9 °C 1½ mi 1,800 ft 310° 310° 7 kt METAR KATL 022134Z 31007KT 1 1/2SM RA BR SCT006 BKN018 OVC036 09/08 A3013 RMK AO2 SFC VIS 2 P0004 T00940083 $
16:14
I
9 °C 1½ mi 1,400 ft 330° 330° 6 kt METAR KATL 022114Z 33006KT 1 1/2SM -RA BR SCT006 BKN014 OVC030 09/08 A3011 RMK AO2 SFC VIS 3 P0001 T00940083 $
15:52
I
9 °C 1½ mi 600 ft 330° 330° 7 kt METAR KATL 022052Z 33007KT 1 1/2SM -RA BR OVC006 09/09 A3010 RMK AO2 SFC VIS 2 SLP196 CIG 004V008 P0002 60004 T00940089 55020 $
14:52
I
10 °C 1½ mi 600 ft 060° 060° 5 kt METAR KATL 021952Z 06005KT 1 1/2SM -RA BR OVC006 10/08 A3009 RMK AO2 DZE35RAB35 SLP190 CIG 004V008 P0001 T01000083 $
14:44
I
10 °C 1½ mi 600 ft 090° 090° 4 kt METAR KATL 021944Z 09004KT 1 1/2SM -RA BR OVC006 10/08 A3009 RMK AO2 DZE35RAB35 CIG 004V008 P0000 T01000083 $
14:42
I
10 °C 2 mi 600 ft 090° 090° 4 kt METAR KATL 021942Z 09004KT 2SM -RA BR OVC006 10/08 A3009 RMK AO2 DZE35RAB35 CIG 004V008 P0000 T01000083
13:52
I
10 °C 6 mi 500 ft 040° 040° 3 kt METAR KATL 021852Z 04003KT 6SM -DZ BR OVC005 10/09 A3011 RMK AO2 RAE39DZB39 SLP198 CIG 004V007 P0001 T01000089
13:35
L
9 °C 5 mi 400 ft 330° 330° 3 kt METAR KATL 021835Z 33003KT 5SM -RA BR OVC004 09/08 A3013 RMK AO2 CIG 003V006 P0001 T00940083
13:24
L
9 °C 2 mi 400 ft 320° 320° 3 kt METAR KATL 021824Z 32003KT 2SM -RA BR OVC004 09/09 A3014 RMK AO2 CIG 003V006 P0000 T00940089
12:52
I
9 °C 4 mi 600 ft 330° 330° 3 kt METAR KATL 021752Z 33003KT 4SM -RA BR BKN006 BKN018 OVC032 09/08 A3016 RMK AO2 RAE08B40DZB08E40 SLP216 CIG 004V008 P0000 60002 T00940078 10100 20078 58013
12:01
I
9 °C 4 mi 500 ft Var 000° 0 kt METAR KATL 021701Z 00000KT 4SM -RA BR BKN005 BKN018 OVC030 09/08 A3018 RMK AO2 CIG 004V007 P0000 T00940083
11:52
I
9 °C 2½ mi 500 ft 030° 030° 3 kt METAR KATL 021652Z 03003KT 2 1/2SM -RA BR BKN005 BKN019 OVC030 09/08 A3018 RMK AO2 DZE51RAB51 SLP223 CIG 004V007 P0000 T00940078
10:52
I
9 °C 3 mi 600 ft 030° 030° 4 kt METAR KATL 021552Z 03004KT 3SM -DZ BR BKN006 BKN016 OVC034 09/08 A3019 RMK AO2 DZB34 SLP227 CIG 005V008 P0000 T00890078
09:52
I
8 °C 8 mi 700 ft 360° 360° 7 kt METAR KATL 021452Z 36007KT 8SM BKN007 OVC014 08/07 A3020 RMK AO2 RAB10E28DZB28E41 SLP228 CIG 005V009 P0000 60002 T00830067 50012
08:52
I
8 °C 7 mi 600 ft 340° 340° 11 kt METAR KATL 021352Z 34011KT 7SM BKN006 OVC030 08/06 A3020 RMK AO2 RAE28 SLP229 CIG 005V007 P0002 T00780061
07:52
L
8 °C 2 mi 400 ft 330° 330° 8 kt METAR KATL 021252Z 33008KT 2SM -RA BR BKN004 BKN008 OVC025 08/07 A3019 RMK AO2 SFC VIS 3 RAE02B37 SLP226 CIG 003V005 P0000 T00780067
06:52
L
8 °C 3 mi 400 ft 320° 320° 5 kt METAR KATL 021152Z 32005KT 3SM -RA BR BKN004 OVC026 08/07 A3016 RMK AO2 SLP216 CIG 002V006 P0003 60005 70005 T00780067 10089 20078 53001
06:16
I
8 °C 3 mi 500 ft 320° 320° 5 kt METAR KATL 021116Z 32005KT 3SM -RA BR BKN005 BKN014 OVC030 08/07 A3017 RMK AO2 CIG 003V007 P0002 T00780067 $
05:59
I
8 °C 2½ mi 500 ft 310° 310° 7 kt METAR KATL 021059Z 31007KT 2 1/2SM -RA BR BKN005 BKN014 OVC030 08/07 A3017 RMK AO2 CIG 003V007 P0001 T00780067
05:52
I
8 °C 3 mi 500 ft 300° 300° 6 kt METAR KATL 021052Z 30006KT 3SM -RA BR BKN005 OVC012 08/07 A3017 RMK AO2 SLP217 P0001 T00780067
05:32
I
8 °C 3 mi 500 ft 310° 310° 5 kt METAR KATL 021032Z 31005KT 3SM -RA BR BKN005 BKN013 OVC022 08/07 A3016 RMK AO2 P0001 T00780067 $
04:52
M
8 °C 4 mi 1,700 ft 350° 350° 5 kt METAR KATL 020952Z 35005KT 4SM -RA BR SCT006 BKN017 OVC025 08/07 A3015 RMK AO2 SLP212 P0001 T00780067 $
04:30
M
8 °C 4 mi 1,500 ft 330° 330° 10 kt METAR KATL 020930Z 33010KT 4SM -RA BR FEW007 OVC015 08/06 A3017 RMK AO2 P0001 T00780061 $
03:52
M
8 °C 6 mi 1,500 ft 320° 320° 7 kt METAR KATL 020852Z 32007KT 6SM -RA BR OVC015 08/07 A3016 RMK AO2 RAB47 SLP214 P0000 60000 T00830067 56016 $
02:52
M
9 °C 10 mi 2,600 ft 330° 330° 3 kt METAR KATL 020752Z 33003KT 10SM SCT018 OVC026 09/07 A3017 RMK AO2 SLP217 T00890067 $

We and third parties follow your internet behavior on our website with cookies. If you continue, we assume you agree with our cookie policy.